sensor_id;sensor_type;location;lat;lon;timestamp;pressure;altitude;pressure_sealevel;temperature;humidity
53960;BME280;39866;48.638;-2.020;2023-11-19T00:01:30;101405.78;;;18.44;100.00
53960;BME280;39866;48.638;-2.020;2023-11-19T00:03:55;101389.47;;;18.47;100.00
53960;BME280;39866;48.638;-2.020;2023-11-19T00:06:20;101406.66;;;18.44;100.00
53960;BME280;39866;48.638;-2.020;2023-11-19T00:08:45;101408.72;;;18.56;100.00
53960;BME280;39866;48.638;-2.020;2023-11-19T00:11:11;101413.97;;;18.60;100.00
53960;BME280;39866;48.638;-2.020;2023-11-19T00:13:36;101408.50;;;18.61;100.00
53960;BME280;39866;48.638;-2.020;2023-11-19T00:16:01;101410.06;;;18.65;100.00
53960;BME280;39866;48.638;-2.020;2023-11-19T00:18:29;101410.88;;;18.50;100.00
53960;BME280;39866;48.638;-2.020;2023-11-19T00:20:54;101406.13;;;18.55;100.00
53960;BME280;39866;48.638;-2.020;2023-11-19T00:23:19;101397.47;;;18.48;100.00
53960;BME280;39866;48.638;-2.020;2023-11-19T00:25:45;101400.06;;;18.32;100.00
53960;BME280;39866;48.638;-2.020;2023-11-19T00:28:10;101409.31;;;18.46;100.00
53960;BME280;39866;48.638;-2.020;2023-11-19T00:30:35;101408.81;;;18.55;100.00
53960;BME280;39866;48.638;-2.020;2023-11-19T00:33:00;101413.25;;;18.56;100.00
53960;BME280;39866;48.638;-2.020;2023-11-19T00:35:25;101412.38;;;18.38;100.00
53960;BME280;39866;48.638;-2.020;2023-11-19T00:37:51;101413.81;;;18.45;100.00
53960;BME280;39866;48.638;-2.020;2023-11-19T00:40:17;101408.25;;;18.48;100.00
53960;BME280;39866;48.638;-2.020;2023-11-19T00:42:43;101405.16;;;18.39;100.00
53960;BME280;39866;48.638;-2.020;2023-11-19T00:45:08;101398.50;;;18.46;100.00
53960;BME280;39866;48.638;-2.020;2023-11-19T00:47:34;101398.50;;;18.46;100.00
53960;BME280;39866;48.638;-2.020;2023-11-19T00:50:00;101407.22;;;18.51;100.00
53960;BME280;39866;48.638;-2.020;2023-11-19T00:52:25;101414.50;;;18.49;100.00
53960;BME280;39866;48.638;-2.020;2023-11-19T00:54:50;101405.66;;;18.47;100.00
53960;BME280;39866;48.638;-2.020;2023-11-19T00:57:16;101419.75;;;18.52;100.00
53960;BME280;39866;48.638;-2.020;2023-11-19T00:59:42;101416.09;;;18.53;100.00
53960;BME280;39866;48.638;-2.020;2023-11-19T01:02:07;101414.03;;;18.41;100.00
53960;BME280;39866;48.638;-2.020;2023-11-19T01:04:35;101421.34;;;18.39;100.00
53960;BME280;39866;48.638;-2.020;2023-11-19T01:07:01;101430.69;;;18.31;100.00
53960;BME280;39866;48.638;-2.020;2023-11-19T01:09:28;101423.41;;;18.34;100.00
53960;BME280;39866;48.638;-2.020;2023-11-19T01:11:54;101423.69;;;18.27;100.00
53960;BME280;39866;48.638;-2.020;2023-11-19T01:14:19;101426.97;;;18.34;100.00
53960;BME280;39866;48.638;-2.020;2023-11-19T01:16:44;101418.69;;;18.20;100.00
53960;BME280;39866;48.638;-2.020;2023-11-19T01:19:09;101418.25;;;18.29;100.00
53960;BME280;39866;48.638;-2.020;2023-11-19T01:21:35;101429.72;;;18.32;100.00
53960;BME280;39866;48.638;-2.020;2023-11-19T01:24:01;101424.25;;;18.17;100.00
53960;BME280;39866;48.638;-2.020;2023-11-19T01:26:27;101427.00;;;18.15;100.00
53960;BME280;39866;48.638;-2.020;2023-11-19T01:28:53;101424.78;;;18.23;100.00
53960;BME280;39866;48.638;-2.020;2023-11-19T01:31:18;101427.56;;;18.22;100.00
53960;BME280;39866;48.638;-2.020;2023-11-19T01:33:43;101430.41;;;18.19;100.00
53960;BME280;39866;48.638;-2.020;2023-11-19T01:36:09;101424.53;;;18.11;100.00
53960;BME280;39866;48.638;-2.020;2023-11-19T01:38:34;101426.59;;;18.05;100.00
53960;BME280;39866;48.638;-2.020;2023-11-19T01:41:00;101425.50;;;18.10;100.00
53960;BME280;39866;48.638;-2.020;2023-11-19T01:43:33;101420.69;;;17.97;100.00
53960;BME280;39866;48.638;-2.020;2023-11-19T01:45:59;101416.75;;;18.04;100.00
53960;BME280;39866;48.638;-2.020;2023-11-19T01:48:24;101411.94;;;18.11;100.00
53960;BME280;39866;48.638;-2.020;2023-11-19T01:50:50;101408.75;;;18.03;100.00
53960;BME280;39866;48.638;-2.020;2023-11-19T01:53:17;101397.19;;;18.01;100.00
53960;BME280;39866;48.638;-2.020;2023-11-19T01:55:43;101400.66;;;18.03;100.00
53960;BME280;39866;48.638;-2.020;2023-11-19T01:58:08;101393.66;;;17.99;100.00
53960;BME280;39866;48.638;-2.020;2023-11-19T02:00:33;101396.22;;;18.02;100.00
53960;BME280;39866;48.638;-2.020;2023-11-19T02:02:59;101396.59;;;17.94;100.00
53960;BME280;39866;48.638;-2.020;2023-11-19T02:05:25;101398.19;;;17.98;100.00
53960;BME280;39866;48.638;-2.020;2023-11-19T02:07:51;101390.97;;;17.99;100.00
53960;BME280;39866;48.638;-2.020;2023-11-19T02:10:16;101381.63;;;17.89;100.00
53960;BME280;39866;48.638;-2.020;2023-11-19T02:12:44;101389.47;;;17.93;100.00
53960;BME280;39866;48.638;-2.020;2023-11-19T02:15:10;101386.69;;;17.95;100.00
53960;BME280;39866;48.638;-2.020;2023-11-19T02:17:35;101384.88;;;17.95;100.00
53960;BME280;39866;48.638;-2.020;2023-11-19T02:20:02;101395.22;;;17.86;100.00
53960;BME280;39866;48.638;-2.020;2023-11-19T02:22:28;101394.59;;;17.80;100.00
53960;BME280;39866;48.638;-2.020;2023-11-19T02:24:58;101398.88;;;17.85;100.00
53960;BME280;39866;48.638;-2.020;2023-11-19T02:27:43;101388.03;;;17.86;100.00
53960;BME280;39866;48.638;-2.020;2023-11-19T02:30:10;101381.91;;;17.82;100.00
53960;BME280;39866;48.638;-2.020;2023-11-19T02:32:36;101376.50;;;17.82;100.00
53960;BME280;39866;48.638;-2.020;2023-11-19T02:35:05;101376.28;;;17.87;100.00
53960;BME280;39866;48.638;-2.020;2023-11-19T02:37:32;101382.63;;;17.86;100.00
53960;BME280;39866;48.638;-2.020;2023-11-19T02:39:58;101378.47;;;17.79;100.00
53960;BME280;39866;48.638;-2.020;2023-11-19T02:42:34;101391.53;;;17.88;100.00
53960;BME280;39866;48.638;-2.020;2023-11-19T02:44:59;101387.16;;;17.86;100.00
53960;BME280;39866;48.638;-2.020;2023-11-19T02:47:24;101383.00;;;17.78;100.00
53960;BME280;39866;48.638;-2.020;2023-11-19T02:49:50;101389.13;;;17.82;100.00
53960;BME280;39866;48.638;-2.020;2023-11-19T02:52:15;101386.91;;;17.71;100.00
53960;BME280;39866;48.638;-2.020;2023-11-19T02:54:40;101393.09;;;17.73;100.00
53960;BME280;39866;48.638;-2.020;2023-11-19T02:57:06;101386.78;;;17.74;100.00
53960;BME280;39866;48.638;-2.020;2023-11-19T02:59:33;101400.31;;;17.73;100.00
53960;BME280;39866;48.638;-2.020;2023-11-19T03:02:04;101394.31;;;17.66;100.00
53960;BME280;39866;48.638;-2.020;2023-11-19T03:04:31;101390.53;;;17.70;100.00
53960;BME280;39866;48.638;-2.020;2023-11-19T03:06:56;101388.81;;;17.69;100.00
53960;BME280;39866;48.638;-2.020;2023-11-19T03:09:23;101379.63;;;17.73;100.00
53960;BME280;39866;48.638;-2.020;2023-11-19T03:11:49;101389.53;;;17.73;100.00
53960;BME280;39866;48.638;-2.020;2023-11-19T03:14:14;101390.63;;;17.69;100.00
53960;BME280;39866;48.638;-2.020;2023-11-19T03:16:39;101399.44;;;17.72;100.00
53960;BME280;39866;48.638;-2.020;2023-11-19T03:19:05;101408.28;;;17.76;100.00
53960;BME280;39866;48.638;-2.020;2023-11-19T03:21:30;101395.28;;;17.65;100.00
53960;BME280;39866;48.638;-2.020;2023-11-19T03:23:56;101389.09;;;17.63;100.00
53960;BME280;39866;48.638;-2.020;2023-11-19T03:26:21;101385.28;;;17.67;100.00
53960;BME280;39866;48.638;-2.020;2023-11-19T03:28:47;101383.66;;;17.65;100.00
53960;BME280;39866;48.638;-2.020;2023-11-19T03:31:12;101376.56;;;17.62;100.00
53960;BME280;39866;48.638;-2.020;2023-11-19T03:33:38;101384.44;;;17.67;100.00
53960;BME280;39866;48.638;-2.020;2023-11-19T03:36:03;101379.00;;;17.68;100.00
53960;BME280;39866;48.638;-2.020;2023-11-19T03:38:28;101385.28;;;17.67;100.00
53960;BME280;39866;48.638;-2.020;2023-11-19T03:40:53;101377.53;;;17.61;100.00
53960;BME280;39866;48.638;-2.020;2023-11-19T03:43:19;101383.56;;;17.66;100.00
53960;BME280;39866;48.638;-2.020;2023-11-19T03:45:44;101377.03;;;17.72;100.00
53960;BME280;39866;48.638;-2.020;2023-11-19T03:48:09;101383.50;;;17.68;100.00
53960;BME280;39866;48.638;-2.020;2023-11-19T03:50:34;101379.91;;;17.67;100.00
53960;BME280;39866;48.638;-2.020;2023-11-19T03:53:00;101381.00;;;17.63;100.00
53960;BME280;39866;48.638;-2.020;2023-11-19T03:55:25;101382.91;;;17.61;100.00
53960;BME280;39866;48.638;-2.020;2023-11-19T03:57:50;101384.78;;;17.59;100.00
53960;BME280;39866;48.638;-2.020;2023-11-19T04:00:15;101372.22;;;17.60;100.00
53960;BME280;39866;48.638;-2.020;2023-11-19T04:02:41;101381.00;;;17.63;100.00
53960;BME280;39866;48.638;-2.020;2023-11-19T04:05:06;101379.22;;;17.64;100.00
53960;BME280;39866;48.638;-2.020;2023-11-19T04:07:32;101387.97;;;17.67;100.00
53960;BME280;39866;48.638;-2.020;2023-11-19T04:09:57;101393.59;;;17.63;100.00
53960;BME280;39866;48.638;-2.020;2023-11-19T04:12:22;101398.47;;;17.54;100.00
53960;BME280;39866;48.638;-2.020;2023-11-19T04:14:48;101410.84;;;17.58;100.00
53960;BME280;39866;48.638;-2.020;2023-11-19T04:17:13;101402.84;;;17.57;100.00
53960;BME280;39866;48.638;-2.020;2023-11-19T04:19:38;101403.00;;;17.54;100.00
53960;BME280;39866;48.638;-2.020;2023-11-19T04:22:06;101398.91;;;17.45;100.00
53960;BME280;39866;48.638;-2.020;2023-11-19T04:24:31;101396.44;;;17.41;100.00
53960;BME280;39866;48.638;-2.020;2023-11-19T04:26:57;101389.22;;;17.41;100.00
53960;BME280;39866;48.638;-2.020;2023-11-19T04:29:22;101388.28;;;17.42;100.00
53960;BME280;39866;48.638;-2.020;2023-11-19T04:31:47;101397.44;;;17.38;100.00
53960;BME280;39866;48.638;-2.020;2023-11-19T04:34:12;101390.94;;;17.44;100.00
53960;BME280;39866;48.638;-2.020;2023-11-19T04:36:38;101393.63;;;17.44;100.00
53960;BME280;39866;48.638;-2.020;2023-11-19T04:39:03;101393.84;;;17.39;100.00
53960;BME280;39866;48.638;-2.020;2023-11-19T04:41:49;101391.84;;;17.43;100.00
53960;BME280;39866;48.638;-2.020;2023-11-19T04:44:15;101403.56;;;17.42;100.00
53960;BME280;39866;48.638;-2.020;2023-11-19T04:46:41;101401.53;;;17.47;100.00
53960;BME280;39866;48.638;-2.020;2023-11-19T04:49:06;101399.50;;;17.33;100.00
53960;BME280;39866;48.638;-2.020;2023-11-19T04:51:31;101414.75;;;17.32;100.00
53960;BME280;39866;48.638;-2.020;2023-11-19T04:54:02;101417.59;;;17.29;100.00
53960;BME280;39866;48.638;-2.020;2023-11-19T04:56:27;101412.28;;;17.28;100.00
53960;BME280;39866;48.638;-2.020;2023-11-19T04:58:52;101413.59;;;17.19;100.00
53960;BME280;39866;48.638;-2.020;2023-11-19T05:01:18;101420.56;;;17.23;100.00
53960;BME280;39866;48.638;-2.020;2023-11-19T05:03:43;101424.06;;;17.25;100.00
53960;BME280;39866;48.638;-2.020;2023-11-19T05:06:08;101422.31;;;17.24;100.00
53960;BME280;39866;48.638;-2.020;2023-11-19T05:08:34;101427.63;;;17.26;100.00
53960;BME280;39866;48.638;-2.020;2023-11-19T05:11:00;101418.81;;;17.22;100.00
53960;BME280;39866;48.638;-2.020;2023-11-19T05:13:25;101402.94;;;17.16;100.00
53960;BME280;39866;48.638;-2.020;2023-11-19T05:15:50;101408.75;;;17.07;100.00
53960;BME280;39866;48.638;-2.020;2023-11-19T05:18:15;101404.31;;;17.06;100.00
53960;BME280;39866;48.638;-2.020;2023-11-19T05:20:41;101401.47;;;17.09;100.00
53960;BME280;39866;48.638;-2.020;2023-11-19T05:23:06;101409.50;;;17.11;100.00
53960;BME280;39866;48.638;-2.020;2023-11-19T05:25:31;101403.81;;;17.17;100.00
53960;BME280;39866;48.638;-2.020;2023-11-19T05:27:56;101390.66;;;17.11;100.00
53960;BME280;39866;48.638;-2.020;2023-11-19T05:30:22;101392.47;;;17.10;100.00
53960;BME280;39866;48.638;-2.020;2023-11-19T05:32:47;101388.97;;;17.08;100.00
53960;BME280;39866;48.638;-2.020;2023-11-19T05:35:13;101394.34;;;17.08;100.00
53960;BME280;39866;48.638;-2.020;2023-11-19T05:37:38;101389.63;;;17.13;100.00
53960;BME280;39866;48.638;-2.020;2023-11-19T05:40:04;101400.16;;;16.99;100.00
53960;BME280;39866;48.638;-2.020;2023-11-19T05:42:31;101382.06;;;17.02;100.00
53960;BME280;39866;48.638;-2.020;2023-11-19T05:44:57;101386.56;;;17.02;100.00
53960;BME280;39866;48.638;-2.020;2023-11-19T05:47:22;101381.84;;;17.07;100.00
53960;BME280;39866;48.638;-2.020;2023-11-19T05:49:48;101389.75;;;17.10;100.00
53960;BME280;39866;48.638;-2.020;2023-11-19T05:52:14;101392.63;;;17.07;100.00
53960;BME280;39866;48.638;-2.020;2023-11-19T05:54:39;101389.75;;;17.10;100.00
53960;BME280;39866;48.638;-2.020;2023-11-19T05:57:05;101395.03;;;16.93;100.00
53960;BME280;39866;48.638;-2.020;2023-11-19T05:59:30;101395.03;;;16.93;100.00
53960;BME280;39866;48.638;-2.020;2023-11-19T06:01:57;101387.72;;;16.96;100.00
53960;BME280;39866;48.638;-2.020;2023-11-19T06:04:22;101385.63;;;17.03;100.00
53960;BME280;39866;48.638;-2.020;2023-11-19T06:06:47;101397.31;;;17.02;100.00
53960;BME280;39866;48.638;-2.020;2023-11-19T06:09:13;101401.91;;;17.00;100.00
53960;BME280;39866;48.638;-2.020;2023-11-19T06:11:38;101394.69;;;17.00;100.00
53960;BME280;39866;48.638;-2.020;2023-11-19T06:14:04;101388.66;;;16.95;100.00
53960;BME280;39866;48.638;-2.020;2023-11-19T06:16:30;101401.59;;;17.06;100.00
53960;BME280;39866;48.638;-2.020;2023-11-19T06:18:55;101386.72;;;16.99;100.00
53960;BME280;39866;48.638;-2.020;2023-11-19T06:21:21;101393.75;;;17.01;100.00
53960;BME280;39866;48.638;-2.020;2023-11-19T06:23:46;101396.59;;;16.98;100.00
53960;BME280;39866;48.638;-2.020;2023-11-19T06:26:11;101402.03;;;16.97;100.00
53960;BME280;39866;48.638;-2.020;2023-11-19T06:28:36;101395.53;;;17.02;100.00
53960;BME280;39866;48.638;-2.020;2023-11-19T06:31:03;101402.66;;;17.03;100.00
53960;BME280;39866;48.638;-2.020;2023-11-19T06:33:28;101394.28;;;17.09;100.00
53960;BME280;39866;48.638;-2.020;2023-11-19T06:35:53;101396.84;;;17.13;100.00
53960;BME280;39866;48.638;-2.020;2023-11-19T06:38:19;101390.44;;;17.15;100.00
53960;BME280;39866;48.638;-2.020;2023-11-19T06:40:44;101397.56;;;17.16;100.00
53960;BME280;39866;48.638;-2.020;2023-11-19T06:43:10;101398.66;;;17.12;100.00
53960;BME280;39866;48.638;-2.020;2023-11-19T06:45:35;101401.25;;;16.95;100.00
53960;BME280;39866;48.638;-2.020;2023-11-19T06:48:02;101405.34;;;17.03;100.00
53960;BME280;39866;48.638;-2.020;2023-11-19T06:50:28;101402.50;;;17.06;100.00
53960;BME280;39866;48.638;-2.020;2023-11-19T06:52:53;101409.56;;;17.09;100.00
53960;BME280;39866;48.638;-2.020;2023-11-19T06:55:18;101410.97;;;16.97;100.00
53960;BME280;39866;48.638;-2.020;2023-11-19T06:57:44;101413.13;;;16.89;100.00
53960;BME280;39866;48.638;-2.020;2023-11-19T07:00:09;101416.63;;;16.91;100.00
53960;BME280;39866;48.638;-2.020;2023-11-19T07:02:36;101416.69;;;16.90;100.00
53960;BME280;39866;48.638;-2.020;2023-11-19T07:05:01;101409.56;;;16.89;100.00
53960;BME280;39866;48.638;-2.020;2023-11-19T07:07:29;101422.03;;;16.91;100.00
53960;BME280;39866;48.638;-2.020;2023-11-19T07:09:55;101415.50;;;16.76;100.00
53960;BME280;39866;48.638;-2.020;2023-11-19T07:12:20;101420.66;;;16.81;100.00
53960;BME280;39866;48.638;-2.020;2023-11-19T07:14:45;101427.59;;;16.87;100.00
53960;BME280;39866;48.638;-2.020;2023-11-19T07:17:11;101431.22;;;16.86;100.00
53960;BME280;39866;48.638;-2.020;2023-11-19T07:19:37;101433.56;;;16.93;100.00
53960;BME280;39866;48.638;-2.020;2023-11-19T07:22:03;101435.38;;;16.93;100.00
53960;BME280;39866;48.638;-2.020;2023-11-19T07:24:28;101429.47;;;16.84;100.00
53960;BME280;39866;48.638;-2.020;2023-11-19T07:26:53;101429.56;;;16.83;100.00
53960;BME280;39866;48.638;-2.020;2023-11-19T07:29:19;101431.16;;;16.87;100.00
53960;BME280;39866;48.638;-2.020;2023-11-19T07:31:46;101430.34;;;16.85;100.00
53960;BME280;39866;48.638;-2.020;2023-11-19T07:34:12;101424.91;;;16.87;100.00
53960;BME280;39866;48.638;-2.020;2023-11-19T07:36:38;101423.34;;;16.81;100.00
53960;BME280;39866;48.638;-2.020;2023-11-19T07:39:04;101440.50;;;16.78;100.00
53960;BME280;39866;48.638;-2.020;2023-11-19T07:41:30;101440.72;;;16.74;100.00
53960;BME280;39866;48.638;-2.020;2023-11-19T07:43:55;101455.13;;;16.71;100.00
53960;BME280;39866;48.638;-2.020;2023-11-19T07:46:20;101457.75;;;16.73;100.00
53960;BME280;39866;48.638;-2.020;2023-11-19T07:48:45;101455.78;;;16.78;100.00
53960;BME280;39866;48.638;-2.020;2023-11-19T07:51:13;101465.59;;;16.79;100.00
53960;BME280;39866;48.638;-2.020;2023-11-19T07:53:39;101463.97;;;16.75;100.00
53960;BME280;39866;48.638;-2.020;2023-11-19T07:56:05;101471.50;;;16.87;100.00
53960;BME280;39866;48.638;-2.020;2023-11-19T07:58:31;101476.06;;;16.85;100.00
53960;BME280;39866;48.638;-2.020;2023-11-19T08:00:56;101479.50;;;16.89;100.00
53960;BME280;39866;48.638;-2.020;2023-11-19T08:03:21;101494.69;;;16.90;100.00
53960;BME280;39866;48.638;-2.020;2023-11-19T08:05:47;101481.72;;;16.79;100.00
53960;BME280;39866;48.638;-2.020;2023-11-19T08:08:12;101487.75;;;16.84;100.00
53960;BME280;39866;48.638;-2.020;2023-11-19T08:10:37;101485.91;;;16.86;100.00
53960;BME280;39866;48.638;-2.020;2023-11-19T08:13:03;101487.13;;;16.77;100.00
53960;BME280;39866;48.638;-2.020;2023-11-19T08:15:28;101483.81;;;16.93;100.00
53960;BME280;39866;48.638;-2.020;2023-11-19T08:17:53;101482.72;;;16.97;100.00
53960;BME280;39866;48.638;-2.020;2023-11-19T08:20:18;101494.63;;;16.91;100.00
53960;BME280;39866;48.638;-2.020;2023-11-19T08:22:43;101502.72;;;16.91;100.00
53960;BME280;39866;48.638;-2.020;2023-11-19T08:25:09;101493.28;;;16.81;100.00
53960;BME280;39866;48.638;-2.020;2023-11-19T08:27:34;101485.00;;;16.86;100.00
53960;BME280;39866;48.638;-2.020;2023-11-19T08:29:59;101496.16;;;16.76;100.00
53960;BME280;39866;48.638;-2.020;2023-11-19T08:32:25;101506.38;;;16.89;100.00
53960;BME280;39866;48.638;-2.020;2023-11-19T08:34:50;101504.09;;;16.79;100.00
53960;BME280;39866;48.638;-2.020;2023-11-19T08:37:16;101496.47;;;16.91;100.00
53960;BME280;39866;48.638;-2.020;2023-11-19T08:39:45;101493.69;;;16.92;100.00
53960;BME280;39866;48.638;-2.020;2023-11-19T08:42:11;101494.88;;;16.85;100.00
53960;BME280;39866;48.638;-2.020;2023-11-19T08:44:37;101491.09;;;16.91;100.00
53960;BME280;39866;48.638;-2.020;2023-11-19T08:47:02;101485.00;;;16.86;100.00
53960;BME280;39866;48.638;-2.020;2023-11-19T08:49:27;101492.06;;;16.88;100.00
53960;BME280;39866;48.638;-2.020;2023-11-19T08:51:52;101489.50;;;16.85;100.00
53960;BME280;39866;48.638;-2.020;2023-11-19T08:54:18;101494.84;;;16.87;100.00
53960;BME280;39866;48.638;-2.020;2023-11-19T08:56:45;101489.50;;;16.85;100.00
53960;BME280;39866;48.638;-2.020;2023-11-19T08:59:10;101500.25;;;16.85;100.00
53960;BME280;39866;48.638;-2.020;2023-11-19T09:01:36;101499.28;;;16.88;100.00
53960;BME280;39866;48.638;-2.020;2023-11-19T09:04:01;101491.88;;;16.93;100.00
53960;BME280;39866;48.638;-2.020;2023-11-19T09:06:26;101491.00;;;16.92;100.00
53960;BME280;39866;48.638;-2.020;2023-11-19T09:08:52;101508.34;;;16.85;100.00
53960;BME280;39866;48.638;-2.020;2023-11-19T09:11:17;101495.50;;;16.92;100.00
53960;BME280;39866;48.638;-2.020;2023-11-19T09:13:42;101509.72;;;16.95;100.00
53960;BME280;39866;48.638;-2.020;2023-11-19T09:16:11;101503.56;;;16.92;100.00
53960;BME280;39866;48.638;-2.020;2023-11-19T09:18:36;101505.44;;;16.90;100.00
53960;BME280;39866;48.638;-2.020;2023-11-19T09:21:01;101493.50;;;16.97;100.00
53960;BME280;39866;48.638;-2.020;2023-11-19T09:23:28;101501.63;;;16.95;100.00
53960;BME280;39866;48.638;-2.020;2023-11-19T09:25:55;101493.63;;;16.94;100.00
53960;BME280;39866;48.638;-2.020;2023-11-19T09:28:20;101510.38;;;17.00;100.00
53960;BME280;39866;48.638;-2.020;2023-11-19T09:30:45;101509.38;;;17.03;100.00
53960;BME280;39866;48.638;-2.020;2023-11-19T09:33:11;101509.72;;;16.95;100.00
53960;BME280;39866;48.638;-2.020;2023-11-19T09:35:36;101501.50;;;16.98;100.00
53960;BME280;39866;48.638;-2.020;2023-11-19T09:38:01;101507.59;;;17.02;100.00
53960;BME280;39866;48.638;-2.020;2023-11-19T09:40:27;101506.59;;;17.04;100.00
53960;BME280;39866;48.638;-2.020;2023-11-19T09:42:53;101500.34;;;17.04;100.00
53960;BME280;39866;48.638;-2.020;2023-11-19T09:45:20;101506.34;;;17.11;100.00
53960;BME280;39866;48.638;-2.020;2023-11-19T09:47:46;101495.22;;;16.98;100.00
53960;BME280;39866;48.638;-2.020;2023-11-19T09:50:15;101498.34;;;17.09;100.00
53960;BME280;39866;48.638;-2.020;2023-11-19T09:52:41;101494.44;;;17.16;100.00
53960;BME280;39866;48.638;-2.020;2023-11-19T09:55:06;101491.66;;;17.18;100.00
53960;BME280;39866;48.638;-2.020;2023-11-19T09:57:32;101489.84;;;17.18;100.00
53960;BME280;39866;48.638;-2.020;2023-11-19T09:59:59;101486.16;;;17.21;100.00
53960;BME280;39866;48.638;-2.020;2023-11-19T10:02:25;101498.63;;;17.23;100.00
53960;BME280;39866;48.638;-2.020;2023-11-19T10:04:51;101485.28;;;17.20;100.00
53960;BME280;39866;48.638;-2.020;2023-11-19T10:07:17;101504.78;;;17.25;100.00
53960;BME280;39866;48.638;-2.020;2023-11-19T10:09:43;101502.63;;;17.33;100.00
53960;BME280;39866;48.638;-2.020;2023-11-19T10:12:08;101511.38;;;17.18;100.00
53960;BME280;39866;48.638;-2.020;2023-11-19T10:14:33;101508.66;;;17.39;100.00
53960;BME280;39866;48.638;-2.020;2023-11-19T10:17:01;101500.88;;;17.32;100.00
53960;BME280;39866;48.638;-2.020;2023-11-19T10:19:29;101497.25;;;17.33;100.00
53960;BME280;39866;48.638;-2.020;2023-11-19T10:21:54;101497.78;;;17.42;100.00
53960;BME280;39866;48.638;-2.020;2023-11-19T10:24:30;101499.34;;;17.47;100.00
53960;BME280;39866;48.638;-2.020;2023-11-19T10:27:01;101505.19;;;17.37;100.00
53960;BME280;39866;48.638;-2.020;2023-11-19T10:29:30;101511.31;;;17.40;100.00
53960;BME280;39866;48.638;-2.020;2023-11-19T10:31:56;101504.84;;;17.44;100.00
53960;BME280;39866;48.638;-2.020;2023-11-19T10:34:25;101499.25;;;17.49;100.00
53960;BME280;39866;48.638;-2.020;2023-11-19T10:36:51;101500.59;;;17.39;100.00
53960;BME280;39866;48.638;-2.020;2023-11-19T10:39:16;101493.03;;;17.47;100.00
53960;BME280;39866;48.638;-2.020;2023-11-19T10:41:42;101502.38;;;17.40;100.00
53960;BME280;39866;48.638;-2.020;2023-11-19T10:44:08;101490.31;;;17.48;100.00
53960;BME280;39866;48.638;-2.020;2023-11-19T10:46:40;101508.28;;;17.48;100.00
53960;BME280;39866;48.638;-2.020;2023-11-19T10:49:06;101501.94;;;17.49;100.00
53960;BME280;39866;48.638;-2.020;2023-11-19T10:51:31;101494.66;;;17.51;100.00
53960;BME280;39866;48.638;-2.020;2023-11-19T10:53:57;101494.50;;;17.35;100.00
53960;BME280;39866;48.638;-2.020;2023-11-19T10:56:25;101485.88;;;17.47;100.00
53960;BME280;39866;48.638;-2.020;2023-11-19T10:58:50;101503.56;;;17.53;100.00
53960;BME280;39866;48.638;-2.020;2023-11-19T11:01:16;101496.78;;;17.63;100.00
53960;BME280;39866;48.638;-2.020;2023-11-19T11:03:45;101510.53;;;17.57;100.00
53960;BME280;39866;48.638;-2.020;2023-11-19T11:06:16;101521.63;;;17.70;100.00
53960;BME280;39866;48.638;-2.020;2023-11-19T11:08:42;101494.28;;;17.79;100.00
53960;BME280;39866;48.638;-2.020;2023-11-19T11:11:08;101496.38;;;17.72;100.00
53960;BME280;39866;48.638;-2.020;2023-11-19T11:13:35;101493.56;;;17.75;100.00
53960;BME280;39866;48.638;-2.020;2023-11-19T11:16:02;101503.47;;;17.75;100.00
53960;BME280;39866;48.638;-2.020;2023-11-19T11:18:29;101497.94;;;17.78;100.00
53960;BME280;39866;48.638;-2.020;2023-11-19T11:21:01;101501.31;;;17.63;100.00
53960;BME280;39866;48.638;-2.020;2023-11-19T11:26:05;101491.38;;;17.83;100.00
53960;BME280;39866;48.638;-2.020;2023-11-19T11:34:08;101508.59;;;17.81;100.00
53960;BME280;39866;48.638;-2.020;2023-11-19T11:36:40;101500.16;;;17.89;100.00
53960;BME280;39866;48.638;-2.020;2023-11-19T11:39:08;101503.41;;;17.95;100.00
53960;BME280;39866;48.638;-2.020;2023-11-19T11:41:34;101487.00;;;18.00;100.00
53960;BME280;39866;48.638;-2.020;2023-11-19T11:43:59;101500.44;;;18.01;100.00
53960;BME280;39866;48.638;-2.020;2023-11-19T11:49:05;101492.13;;;17.87;100.00
53960;BME280;39866;48.638;-2.020;2023-11-19T11:54:08;101486.22;;;17.98;100.00
53960;BME280;39866;48.638;-2.020;2023-11-19T11:56:36;101509.59;;;17.78;100.00
53960;BME280;39866;48.638;-2.020;2023-11-19T11:59:01;101507.03;;;17.75;100.00
53960;BME280;39866;48.638;-2.020;2023-11-19T12:01:27;101494.91;;;17.86;100.00
53960;BME280;39866;48.638;-2.020;2023-11-19T12:03:55;101497.88;;;17.98;100.00
53960;BME280;39866;48.638;-2.020;2023-11-19T12:06:21;101494.97;;;18.03;100.00
53960;BME280;39866;48.638;-2.020;2023-11-19T12:08:46;101494.91;;;18.04;100.00
53960;BME280;39866;48.638;-2.020;2023-11-19T12:11:11;101483.41;;;18.01;100.00
53960;BME280;39866;48.638;-2.020;2023-11-19T12:13:47;101488.91;;;17.98;100.00
53960;BME280;39866;48.638;-2.020;2023-11-19T12:16:13;101499.41;;;18.04;100.00
53960;BME280;39866;48.638;-2.020;2023-11-19T12:18:39;101491.53;;;18.18;100.00
53960;BME280;39866;48.638;-2.020;2023-11-19T12:21:05;101482.22;;;18.06;100.00
53960;BME280;39866;48.638;-2.020;2023-11-19T12:23:30;101491.84;;;17.93;100.00
53960;BME280;39866;48.638;-2.020;2023-11-19T12:25:56;101478.88;;;18.01;100.00
53960;BME280;39866;48.638;-2.020;2023-11-19T12:28:22;101477.59;;;18.27;100.00
53960;BME280;39866;48.638;-2.020;2023-11-19T12:30:49;101476.97;;;18.22;100.00
53960;BME280;39866;48.638;-2.020;2023-11-19T12:33:14;101479.19;;;18.31;100.00
53960;BME280;39866;48.638;-2.020;2023-11-19T12:35:41;101475.72;;;18.11;100.00
53960;BME280;39866;48.638;-2.020;2023-11-19T12:38:07;101484.53;;;18.14;100.00